sensor_id;sensor_type;location;lat;lon;timestamp;P1;durP1;ratioP1;P2;durP2;ratioP2
4646;SDS011;2336;47.822;7.564;2023-06-10T03:49:20;5.63;;;5.33;;
4646;SDS011;2336;47.822;7.564;2023-06-10T03:51:51;5.07;;;4.87;;
4646;SDS011;2336;47.822;7.564;2023-06-10T03:54:18;5.50;;;5.10;;
4646;SDS011;2336;47.822;7.564;2023-06-10T03:56:45;5.40;;;5.10;;
4646;SDS011;2336;47.822;7.564;2023-06-10T03:59:13;6.33;;;5.40;;
4646;SDS011;2336;47.822;7.564;2023-06-10T04:01:40;6.03;;;5.10;;
4646;SDS011;2336;47.822;7.564;2023-06-10T04:04:07;5.10;;;4.90;;
4646;SDS011;2336;47.822;7.564;2023-06-10T04:06:35;5.57;;;5.17;;
4646;SDS011;2336;47.822;7.564;2023-06-10T04:09:02;5.50;;;5.20;;
4646;SDS011;2336;47.822;7.564;2023-06-10T04:11:29;4.93;;;4.73;;
4646;SDS011;2336;47.822;7.564;2023-06-10T04:13:57;4.60;;;4.40;;
4646;SDS011;2336;47.822;7.564;2023-06-10T04:16:23;5.10;;;4.90;;
4646;SDS011;2336;47.822;7.564;2023-06-10T04:18:50;5.50;;;5.10;;
4646;SDS011;2336;47.822;7.564;2023-06-10T04:21:17;5.47;;;5.10;;
4646;SDS011;2336;47.822;7.564;2023-06-10T04:23:45;5.60;;;5.30;;
4646;SDS011;2336;47.822;7.564;2023-06-10T04:26:12;5.53;;;4.80;;
4646;SDS011;2336;47.822;7.564;2023-06-10T04:28:38;6.17;;;5.70;;
4646;SDS011;2336;47.822;7.564;2023-06-10T04:31:05;4.93;;;4.73;;
4646;SDS011;2336;47.822;7.564;2023-06-10T04:33:32;5.47;;;5.10;;
4646;SDS011;2336;47.822;7.564;2023-06-10T04:35:58;5.00;;;4.70;;
4646;SDS011;2336;47.822;7.564;2023-06-10T04:38:25;8.00;;;6.27;;
4646;SDS011;2336;47.822;7.564;2023-06-10T04:40:54;5.47;;;5.20;;
4646;SDS011;2336;47.822;7.564;2023-06-10T04:43:20;5.40;;;5.00;;
4646;SDS011;2336;47.822;7.564;2023-06-10T04:45:47;5.83;;;5.43;;
4646;SDS011;2336;47.822;7.564;2023-06-10T04:48:14;5.63;;;5.30;;
4646;SDS011;2336;47.822;7.564;2023-06-10T04:50:40;5.90;;;5.30;;
4646;SDS011;2336;47.822;7.564;2023-06-10T04:53:07;5.70;;;5.30;;
4646;SDS011;2336;47.822;7.564;2023-06-10T04:55:34;5.83;;;5.43;;
4646;SDS011;2336;47.822;7.564;2023-06-10T04:58:02;6.00;;;5.70;;
4646;SDS011;2336;47.822;7.564;2023-06-10T05:00:29;5.00;;;4.80;;
4646;SDS011;2336;47.822;7.564;2023-06-10T05:02:56;5.30;;;5.10;;
4646;SDS011;2336;47.822;7.564;2023-06-10T05:05:22;6.77;;;5.30;;
4646;SDS011;2336;47.822;7.564;2023-06-10T05:07:49;5.10;;;4.80;;
4646;SDS011;2336;47.822;7.564;2023-06-10T05:10:16;5.23;;;4.93;;
4646;SDS011;2336;47.822;7.564;2023-06-10T05:12:42;5.40;;;5.10;;
4646;SDS011;2336;47.822;7.564;2023-06-10T05:15:11;5.30;;;5.00;;
4646;SDS011;2336;47.822;7.564;2023-06-10T05:17:37;5.73;;;5.43;;
4646;SDS011;2336;47.822;7.564;2023-06-10T05:20:05;5.13;;;4.73;;
4646;SDS011;2336;47.822;7.564;2023-06-10T05:22:33;6.30;;;5.20;;
4646;SDS011;2336;47.822;7.564;2023-06-10T05:25:00;5.27;;;4.97;;
4646;SDS011;2336;47.822;7.564;2023-06-10T05:27:27;4.97;;;4.77;;
4646;SDS011;2336;47.822;7.564;2023-06-10T05:29:54;6.10;;;5.50;;
4646;SDS011;2336;47.822;7.564;2023-06-10T05:32:22;6.00;;;5.50;;
4646;SDS011;2336;47.822;7.564;2023-06-10T05:34:49;7.33;;;5.50;;
4646;SDS011;2336;47.822;7.564;2023-06-10T05:37:16;5.93;;;5.53;;
4646;SDS011;2336;47.822;7.564;2023-06-10T05:39:42;5.63;;;5.30;;
4646;SDS011;2336;47.822;7.564;2023-06-10T05:42:09;5.80;;;5.30;;
4646;SDS011;2336;47.822;7.564;2023-06-10T05:44:36;5.20;;;5.00;;
4646;SDS011;2336;47.822;7.564;2023-06-10T05:47:03;5.00;;;4.63;;
4646;SDS011;2336;47.822;7.564;2023-06-10T05:49:31;5.50;;;5.20;;
4646;SDS011;2336;47.822;7.564;2023-06-10T05:51:58;5.57;;;5.27;;
4646;SDS011;2336;47.822;7.564;2023-06-10T05:54:25;5.20;;;4.90;;
4646;SDS011;2336;47.822;7.564;2023-06-10T05:56:52;5.50;;;5.20;;
4646;SDS011;2336;47.822;7.564;2023-06-10T05:59:18;5.20;;;4.90;;
4646;SDS011;2336;47.822;7.564;2023-06-10T06:01:45;4.83;;;4.60;;
4646;SDS011;2336;47.822;7.564;2023-06-10T06:04:12;5.00;;;4.80;;
4646;SDS011;2336;47.822;7.564;2023-06-10T06:06:40;5.17;;;4.77;;
4646;SDS011;2336;47.822;7.564;2023-06-10T06:09:07;5.63;;;5.23;;
4646;SDS011;2336;47.822;7.564;2023-06-10T06:11:34;5.70;;;5.40;;
4646;SDS011;2336;47.822;7.564;2023-06-10T06:14:00;5.77;;;5.47;;
4646;SDS011;2336;47.822;7.564;2023-06-10T06:16:27;6.50;;;6.00;;
4646;SDS011;2336;47.822;7.564;2023-06-10T06:18:54;5.60;;;5.30;;
4646;SDS011;2336;47.822;7.564;2023-06-10T06:21:21;5.50;;;5.07;;
4646;SDS011;2336;47.822;7.564;2023-06-10T06:23:49;5.43;;;5.13;;
4646;SDS011;2336;47.822;7.564;2023-06-10T06:26:15;5.93;;;5.53;;
4646;SDS011;2336;47.822;7.564;2023-06-10T06:28:42;6.10;;;5.40;;
4646;SDS011;2336;47.822;7.564;2023-06-10T06:31:09;5.97;;;5.57;;
4646;SDS011;2336;47.822;7.564;2023-06-10T06:33:36;6.27;;;5.67;;
4646;SDS011;2336;47.822;7.564;2023-06-10T06:36:02;5.13;;;4.83;;
4646;SDS011;2336;47.822;7.564;2023-06-10T06:38:29;5.23;;;4.93;;
4646;SDS011;2336;47.822;7.564;2023-06-10T06:40:58;5.80;;;5.40;;
4646;SDS011;2336;47.822;7.564;2023-06-10T06:43:28;5.67;;;5.37;;
4646;SDS011;2336;47.822;7.564;2023-06-10T06:45:55;6.17;;;5.70;;
4646;SDS011;2336;47.822;7.564;2023-06-10T06:48:22;5.73;;;5.43;;
4646;SDS011;2336;47.822;7.564;2023-06-10T06:50:48;6.57;;;5.97;;
4646;SDS011;2336;47.822;7.564;2023-06-10T06:53:15;6.20;;;5.70;;
4646;SDS011;2336;47.822;7.564;2023-06-10T06:55:42;5.90;;;5.50;;
4646;SDS011;2336;47.822;7.564;2023-06-10T06:58:10;5.43;;;5.13;;
4646;SDS011;2336;47.822;7.564;2023-06-10T07:00:37;7.77;;;5.70;;
4646;SDS011;2336;47.822;7.564;2023-06-10T07:03:03;6.67;;;6.17;;
4646;SDS011;2336;47.822;7.564;2023-06-10T07:05:30;7.13;;;6.37;;
4646;SDS011;2336;47.822;7.564;2023-06-10T07:07:57;6.00;;;5.60;;
4646;SDS011;2336;47.822;7.564;2023-06-10T07:10:24;7.03;;;6.33;;
4646;SDS011;2336;47.822;7.564;2023-06-10T07:12:51;8.00;;;6.67;;
4646;SDS011;2336;47.822;7.564;2023-06-10T07:15:20;6.10;;;5.70;;
4646;SDS011;2336;47.822;7.564;2023-06-10T07:17:46;5.50;;;5.20;;
4646;SDS011;2336;47.822;7.564;2023-06-10T07:20:13;6.70;;;5.60;;
4646;SDS011;2336;47.822;7.564;2023-06-10T07:22:40;5.13;;;4.93;;
4646;SDS011;2336;47.822;7.564;2023-06-10T07:25:07;5.50;;;5.10;;
4646;SDS011;2336;47.822;7.564;2023-06-10T07:27:34;6.20;;;5.73;;
4646;SDS011;2336;47.822;7.564;2023-06-10T07:30:02;5.60;;;5.20;;
4646;SDS011;2336;47.822;7.564;2023-06-10T07:32:31;6.20;;;5.80;;
4646;SDS011;2336;47.822;7.564;2023-06-10T07:34:57;11.17;;;6.53;;
4646;SDS011;2336;47.822;7.564;2023-06-10T07:37:24;7.23;;;6.30;;
4646;SDS011;2336;47.822;7.564;2023-06-10T07:39:51;6.00;;;5.40;;
4646;SDS011;2336;47.822;7.564;2023-06-10T07:42:18;5.97;;;5.53;;
4646;SDS011;2336;47.822;7.564;2023-06-10T07:44:44;5.70;;;5.30;;
4646;SDS011;2336;47.822;7.564;2023-06-10T07:47:11;6.87;;;6.33;;
4646;SDS011;2336;47.822;7.564;2023-06-10T07:49:39;6.47;;;6.17;;
4646;SDS011;2336;47.822;7.564;2023-06-10T07:52:07;6.43;;;6.03;;
4646;SDS011;2336;47.822;7.564;2023-06-10T07:54:34;7.43;;;6.80;;
4646;SDS011;2336;47.822;7.564;2023-06-10T07:57:00;5.50;;;5.30;;
4646;SDS011;2336;47.822;7.564;2023-06-10T07:59:27;5.60;;;5.30;;
4646;SDS011;2336;47.822;7.564;2023-06-10T08:01:54;6.67;;;6.27;;
4646;SDS011;2336;47.822;7.564;2023-06-10T08:04:21;6.00;;;5.60;;
4646;SDS011;2336;47.822;7.564;2023-06-10T08:06:49;6.40;;;5.80;;
4646;SDS011;2336;47.822;7.564;2023-06-10T08:09:15;6.30;;;5.90;;
4646;SDS011;2336;47.822;7.564;2023-06-10T08:11:43;5.20;;;4.90;;
4646;SDS011;2336;47.822;7.564;2023-06-10T08:14:10;6.97;;;6.47;;
4646;SDS011;2336;47.822;7.564;2023-06-10T08:16:36;5.97;;;5.67;;
4646;SDS011;2336;47.822;7.564;2023-06-10T08:19:03;5.87;;;5.57;;
4646;SDS011;2336;47.822;7.564;2023-06-10T08:21:30;6.00;;;5.60;;
4646;SDS011;2336;47.822;7.564;2023-06-10T08:23:58;5.43;;;5.13;;
4646;SDS011;2336;47.822;7.564;2023-06-10T08:26:24;6.80;;;6.30;;
4646;SDS011;2336;47.822;7.564;2023-06-10T08:28:51;5.63;;;5.40;;
4646;SDS011;2336;47.822;7.564;2023-06-10T08:31:19;5.50;;;5.20;;
4646;SDS011;2336;47.822;7.564;2023-06-10T08:33:46;6.50;;;6.00;;
4646;SDS011;2336;47.822;7.564;2023-06-10T08:36:13;6.23;;;5.73;;
4646;SDS011;2336;47.822;7.564;2023-06-10T08:38:39;5.47;;;5.17;;
4646;SDS011;2336;47.822;7.564;2023-06-10T08:41:07;6.37;;;6.07;;
4646;SDS011;2336;47.822;7.564;2023-06-10T08:43:39;5.30;;;5.03;;
4646;SDS011;2336;47.822;7.564;2023-06-10T08:46:08;5.40;;;5.10;;
4646;SDS011;2336;47.822;7.564;2023-06-10T08:48:37;5.73;;;5.40;;
4646;SDS011;2336;47.822;7.564;2023-06-10T08:51:09;6.73;;;6.23;;
4646;SDS011;2336;47.822;7.564;2023-06-10T08:53:37;5.97;;;5.67;;
4646;SDS011;2336;47.822;7.564;2023-06-10T08:56:08;6.00;;;5.70;;
4646;SDS011;2336;47.822;7.564;2023-06-10T08:58:37;6.80;;;6.37;;
4646;SDS011;2336;47.822;7.564;2023-06-10T09:01:06;6.50;;;6.03;;
4646;SDS011;2336;47.822;7.564;2023-06-10T09:03:33;6.00;;;5.70;;
4646;SDS011;2336;47.822;7.564;2023-06-10T09:06:02;5.90;;;5.60;;
4646;SDS011;2336;47.822;7.564;2023-06-10T09:08:31;6.50;;;6.10;;
4646;SDS011;2336;47.822;7.564;2023-06-10T09:10:59;6.40;;;5.80;;
4646;SDS011;2336;47.822;7.564;2023-06-10T09:13:28;5.97;;;5.67;;
4646;SDS011;2336;47.822;7.564;2023-06-10T09:15:55;6.67;;;6.27;;
4646;SDS011;2336;47.822;7.564;2023-06-10T09:18:25;5.90;;;5.53;;
4646;SDS011;2336;47.822;7.564;2023-06-10T09:20:52;6.93;;;6.23;;
4646;SDS011;2336;47.822;7.564;2023-06-10T09:23:19;5.70;;;5.40;;
4646;SDS011;2336;47.822;7.564;2023-06-10T09:25:45;7.20;;;6.50;;
4646;SDS011;2336;47.822;7.564;2023-06-10T09:28:21;6.20;;;5.90;;
4646;SDS011;2336;47.822;7.564;2023-06-10T09:30:49;6.53;;;6.10;;
4646;SDS011;2336;47.822;7.564;2023-06-10T09:33:27;7.00;;;6.60;;
4646;SDS011;2336;47.822;7.564;2023-06-10T09:35:54;6.67;;;6.37;;
4646;SDS011;2336;47.822;7.564;2023-06-10T09:38:22;6.20;;;5.87;;
4646;SDS011;2336;47.822;7.564;2023-06-10T09:40:49;6.60;;;6.20;;
4646;SDS011;2336;47.822;7.564;2023-06-10T09:43:17;5.70;;;5.40;;
4646;SDS011;2336;47.822;7.564;2023-06-10T09:45:44;7.00;;;6.47;;
4646;SDS011;2336;47.822;7.564;2023-06-10T09:48:14;7.90;;;7.20;;
4646;SDS011;2336;47.822;7.564;2023-06-10T09:50:41;7.00;;;6.50;;
4646;SDS011;2336;47.822;7.564;2023-06-10T09:53:10;7.17;;;6.67;;
4646;SDS011;2336;47.822;7.564;2023-06-10T09:55:37;6.43;;;6.13;;
4646;SDS011;2336;47.822;7.564;2023-06-10T09:58:05;7.17;;;6.80;;
4646;SDS011;2336;47.822;7.564;2023-06-10T10:00:31;7.20;;;6.80;;
4646;SDS011;2336;47.822;7.564;2023-06-10T10:02:58;7.90;;;7.40;;
4646;SDS011;2336;47.822;7.564;2023-06-10T10:05:27;7.40;;;6.90;;
4646;SDS011;2336;47.822;7.564;2023-06-10T10:07:55;6.80;;;6.30;;
4646;SDS011;2336;47.822;7.564;2023-06-10T10:10:22;6.63;;;6.20;;
4646;SDS011;2336;47.822;7.564;2023-06-10T10:12:51;7.90;;;7.30;;
4646;SDS011;2336;47.822;7.564;2023-06-10T10:15:21;7.07;;;6.73;;
4646;SDS011;2336;47.822;7.564;2023-06-10T10:17:52;11.50;;;8.53;;
4646;SDS011;2336;47.822;7.564;2023-06-10T10:20:22;8.07;;;7.47;;
4646;SDS011;2336;47.822;7.564;2023-06-10T10:22:55;8.20;;;7.60;;
4646;SDS011;2336;47.822;7.564;2023-06-10T10:25:24;8.60;;;7.77;;
4646;SDS011;2336;47.822;7.564;2023-06-10T10:27:56;8.33;;;7.63;;
4646;SDS011;2336;47.822;7.564;2023-06-10T10:30:29;10.67;;;9.87;;
4646;SDS011;2336;47.822;7.564;2023-06-10T10:33:04;8.60;;;8.03;;
4646;SDS011;2336;47.822;7.564;2023-06-10T10:35:36;7.93;;;7.43;;
4646;SDS011;2336;47.822;7.564;2023-06-10T10:38:09;9.30;;;8.60;;
4646;SDS011;2336;47.822;7.564;2023-06-10T10:40:36;8.77;;;8.00;;
4646;SDS011;2336;47.822;7.564;2023-06-10T10:43:04;9.53;;;8.73;;
4646;SDS011;2336;47.822;7.564;2023-06-10T10:45:33;12.53;;;7.77;;
4646;SDS011;2336;47.822;7.564;2023-06-10T10:48:04;7.30;;;6.70;;
4646;SDS011;2336;47.822;7.564;2023-06-10T10:50:36;7.63;;;7.13;;
4646;SDS011;2336;47.822;7.564;2023-06-10T10:53:05;8.20;;;7.63;;
4646;SDS011;2336;47.822;7.564;2023-06-10T10:55:33;7.40;;;6.90;;
4646;SDS011;2336;47.822;7.564;2023-06-10T10:58:02;7.53;;;7.03;;
4646;SDS011;2336;47.822;7.564;2023-06-10T11:00:30;7.60;;;7.10;;
4646;SDS011;2336;47.822;7.564;2023-06-10T11:02:58;9.37;;;8.47;;
4646;SDS011;2336;47.822;7.564;2023-06-10T11:05:35;6.67;;;6.23;;
4646;SDS011;2336;47.822;7.564;2023-06-10T11:08:04;8.67;;;8.00;;
4646;SDS011;2336;47.822;7.564;2023-06-10T11:10:32;8.40;;;7.53;;
4646;SDS011;2336;47.822;7.564;2023-06-10T11:13:02;8.10;;;7.50;;
4646;SDS011;2336;47.822;7.564;2023-06-10T11:15:33;7.97;;;7.27;;
4646;SDS011;2336;47.822;7.564;2023-06-10T11:18:07;10.63;;;9.77;;
4646;SDS011;2336;47.822;7.564;2023-06-10T11:26:12;10.90;;;8.13;;
4646;SDS011;2336;47.822;7.564;2023-06-10T11:29:06;9.50;;;8.80;;
4646;SDS011;2336;47.822;7.564;2023-06-10T11:31:43;8.90;;;8.20;;
4646;SDS011;2336;47.822;7.564;2023-06-10T11:34:12;7.63;;;7.23;;
4646;SDS011;2336;47.822;7.564;2023-06-10T11:36:39;7.43;;;6.90;;
4646;SDS011;2336;47.822;7.564;2023-06-10T11:39:09;6.97;;;6.40;;
4646;SDS011;2336;47.822;7.564;2023-06-10T11:41:38;7.50;;;7.00;;
4646;SDS011;2336;47.822;7.564;2023-06-10T11:44:07;9.20;;;8.33;;
4646;SDS011;2336;47.822;7.564;2023-06-10T11:46:35;8.17;;;7.67;;
4646;SDS011;2336;47.822;7.564;2023-06-10T11:49:02;8.03;;;7.50;;
4646;SDS011;2336;47.822;7.564;2023-06-10T11:51:31;9.43;;;8.73;;
4646;SDS011;2336;47.822;7.564;2023-06-10T11:54:00;8.50;;;7.90;;
4646;SDS011;2336;47.822;7.564;2023-06-10T11:56:27;8.97;;;8.37;;
4646;SDS011;2336;47.822;7.564;2023-06-10T11:58:57;8.40;;;7.70;;
4646;SDS011;2336;47.822;7.564;2023-06-10T12:01:29;8.13;;;7.63;;
4646;SDS011;2336;47.822;7.564;2023-06-10T12:03:56;7.50;;;7.00;;
4646;SDS011;2336;47.822;7.564;2023-06-10T12:06:37;7.67;;;7.03;;
4646;SDS011;2336;47.822;7.564;2023-06-10T12:09:04;10.77;;;8.30;;
4646;SDS011;2336;47.822;7.564;2023-06-10T12:11:31;8.33;;;7.70;;
4646;SDS011;2336;47.822;7.564;2023-06-10T12:14:00;7.57;;;7.07;;
4646;SDS011;2336;47.822;7.564;2023-06-10T12:16:28;7.63;;;7.13;;
4646;SDS011;2336;47.822;7.564;2023-06-10T12:19:00;7.40;;;7.00;;
4646;SDS011;2336;47.822;7.564;2023-06-10T12:21:28;8.83;;;7.93;;
4646;SDS011;2336;47.822;7.564;2023-06-10T12:24:02;8.70;;;8.10;;
4646;SDS011;2336;47.822;7.564;2023-06-10T12:26:37;8.00;;;7.50;;
4646;SDS011;2336;47.822;7.564;2023-06-10T12:29:20;7.50;;;7.10;;
4646;SDS011;2336;47.822;7.564;2023-06-10T12:31:56;7.70;;;7.20;;
4646;SDS011;2336;47.822;7.564;2023-06-10T12:34:27;9.00;;;8.40;;
4646;SDS011;2336;47.822;7.564;2023-06-10T12:37:02;8.10;;;7.60;;
4646;SDS011;2336;47.822;7.564;2023-06-10T12:39:31;8.47;;;7.90;;
4646;SDS011;2336;47.822;7.564;2023-06-10T12:41:58;8.00;;;7.50;;
4646;SDS011;2336;47.822;7.564;2023-06-10T12:44:33;8.13;;;7.63;;
4646;SDS011;2336;47.822;7.564;2023-06-10T12:47:01;7.77;;;7.27;;
4646;SDS011;2336;47.822;7.564;2023-06-10T12:49:33;7.90;;;7.33;;
4646;SDS011;2336;47.822;7.564;2023-06-10T12:52:01;8.00;;;7.27;;
4646;SDS011;2336;47.822;7.564;2023-06-10T12:54:28;8.83;;;8.10;;
4646;SDS011;2336;47.822;7.564;2023-06-10T12:56:54;7.87;;;7.37;;
4646;SDS011;2336;47.822;7.564;2023-06-10T12:59:21;7.90;;;7.50;;
4646;SDS011;2336;47.822;7.564;2023-06-10T13:01:53;8.40;;;7.87;;
4646;SDS011;2336;47.822;7.564;2023-06-10T13:04:20;8.13;;;7.73;;
4646;SDS011;2336;47.822;7.564;2023-06-10T13:06:47;8.67;;;8.07;;
4646;SDS011;2336;47.822;7.564;2023-06-10T13:09:15;8.80;;;8.20;;
4646;SDS011;2336;47.822;7.564;2023-06-10T13:11:42;7.67;;;7.27;;
4646;SDS011;2336;47.822;7.564;2023-06-10T13:14:09;8.33;;;7.53;;
4646;SDS011;2336;47.822;7.564;2023-06-10T13:16:36;8.57;;;8.07;;
4646;SDS011;2336;47.822;7.564;2023-06-10T13:19:05;7.53;;;7.13;;
4646;SDS011;2336;47.822;7.564;2023-06-10T13:21:32;7.40;;;7.00;;
4646;SDS011;2336;47.822;7.564;2023-06-10T13:23:59;8.20;;;7.47;;
4646;SDS011;2336;47.822;7.564;2023-06-10T13:26:26;8.20;;;7.60;;
4646;SDS011;2336;47.822;7.564;2023-06-10T13:28:53;6.47;;;6.17;;
4646;SDS011;2336;47.822;7.564;2023-06-10T13:31:20;7.90;;;7.20;;
4646;SDS011;2336;47.822;7.564;2023-06-10T13:33:50;8.00;;;7.50;;
4646;SDS011;2336;47.822;7.564;2023-06-10T13:36:19;7.57;;;7.17;;
4646;SDS011;2336;47.822;7.564;2023-06-10T13:38:46;7.60;;;7.10;;
4646;SDS011;2336;47.822;7.564;2023-06-10T13:41:13;8.00;;;7.60;;
4646;SDS011;2336;47.822;7.564;2023-06-10T13:43:40;7.70;;;7.20;;
4646;SDS011;2336;47.822;7.564;2023-06-10T13:46:07;7.73;;;7.10;;
4646;SDS011;2336;47.822;7.564;2023-06-10T13:48:33;7.33;;;6.93;;
4646;SDS011;2336;47.822;7.564;2023-06-10T13:51:01;7.63;;;6.60;;
4646;SDS011;2336;47.822;7.564;2023-06-10T13:53:29;6.63;;;6.23;;
4646;SDS011;2336;47.822;7.564;2023-06-10T13:55:56;7.57;;;6.87;;
4646;SDS011;2336;47.822;7.564;2023-06-10T13:58:23;6.77;;;6.30;;
4646;SDS011;2336;47.822;7.564;2023-06-10T14:00:49;6.70;;;6.33;;
4646;SDS011;2336;47.822;7.564;2023-06-10T14:03:16;6.50;;;6.10;;
4646;SDS011;2336;47.822;7.564;2023-06-10T14:05:43;6.50;;;5.90;;
4646;SDS011;2336;47.822;7.564;2023-06-10T14:08:10;6.60;;;6.20;;
4646;SDS011;2336;47.822;7.564;2023-06-10T14:10:38;6.30;;;5.87;;
4646;SDS011;2336;47.822;7.564;2023-06-10T14:13:05;6.47;;;6.07;;
4646;SDS011;2336;47.822;7.564;2023-06-10T14:15:32;6.90;;;6.30;;
4646;SDS011;2336;47.822;7.564;2023-06-10T14:17:58;6.30;;;6.00;;
4646;SDS011;2336;47.822;7.564;2023-06-10T14:20:25;6.43;;;6.03;;
4646;SDS011;2336;47.822;7.564;2023-06-10T14:22:56;5.43;;;5.20;;
4646;SDS011;2336;47.822;7.564;2023-06-10T14:25:23;5.80;;;5.40;;
4646;SDS011;2336;47.822;7.564;2023-06-10T14:27:51;6.47;;;6.07;;
4646;SDS011;2336;47.822;7.564;2023-06-10T14:30:17;5.53;;;5.27;;
4646;SDS011;2336;47.822;7.564;2023-06-10T14:32:44;5.77;;;5.43;;
4646;SDS011;2336;47.822;7.564;2023-06-10T14:35:11;5.87;;;5.53;;
4646;SDS011;2336;47.822;7.564;2023-06-10T14:37:38;5.60;;;5.20;;
4646;SDS011;2336;47.822;7.564;2023-06-10T14:40:05;5.50;;;5.30;;
4646;SDS011;2336;47.822;7.564;2023-06-10T14:42:32;5.27;;;5.07;;
4646;SDS011;2336;47.822;7.564;2023-06-10T14:45:00;5.27;;;5.00;;
4646;SDS011;2336;47.822;7.564;2023-06-10T14:47:27;5.43;;;5.23;;
4646;SDS011;2336;47.822;7.564;2023-06-10T14:49:54;5.13;;;4.90;;
4646;SDS011;2336;47.822;7.564;2023-06-10T14:52:20;5.40;;;5.10;;
4646;SDS011;2336;47.822;7.564;2023-06-10T14:54:47;6.07;;;5.77;;
4646;SDS011;2336;47.822;7.564;2023-06-10T14:57:14;5.73;;;5.43;;
4646;SDS011;2336;47.822;7.564;2023-06-10T14:59:41;5.83;;;5.40;;
4646;SDS011;2336;47.822;7.564;2023-06-10T15:02:09;5.90;;;5.60;;
4646;SDS011;2336;47.822;7.564;2023-06-10T15:04:35;6.20;;;5.80;;
4646;SDS011;2336;47.822;7.564;2023-06-10T15:07:02;5.60;;;5.40;;
4646;SDS011;2336;47.822;7.564;2023-06-10T15:09:29;5.73;;;5.43;;
4646;SDS011;2336;47.822;7.564;2023-06-10T15:11:56;5.40;;;5.20;;
4646;SDS011;2336;47.822;7.564;2023-06-10T15:14:24;4.87;;;4.73;;
4646;SDS011;2336;47.822;7.564;2023-06-10T15:16:51;5.40;;;5.10;;
4646;SDS011;2336;47.822;7.564;2023-06-10T15:19:19;4.77;;;4.57;;
4646;SDS011;2336;47.822;7.564;2023-06-10T15:21:46;5.00;;;4.70;;
4646;SDS011;2336;47.822;7.564;2023-06-10T15:24:13;4.90;;;4.70;;
4646;SDS011;2336;47.822;7.564;2023-06-10T15:26:40;5.13;;;4.83;;
4646;SDS011;2336;47.822;7.564;2023-06-10T15:29:06;5.00;;;4.70;;
4646;SDS011;2336;47.822;7.564;2023-06-10T15:31:34;5.07;;;4.87;;
4646;SDS011;2336;47.822;7.564;2023-06-10T15:34:01;5.10;;;4.90;;
4646;SDS011;2336;47.822;7.564;2023-06-10T15:36:30;5.50;;;5.20;;
4646;SDS011;2336;47.822;7.564;2023-06-10T15:38:58;4.20;;;4.10;;
4646;SDS011;2336;47.822;7.564;2023-06-10T15:41:28;5.10;;;4.80;;
4646;SDS011;2336;47.822;7.564;2023-06-10T15:43:55;5.10;;;4.77;;
4646;SDS011;2336;47.822;7.564;2023-06-10T15:46:24;4.70;;;4.50;;
4646;SDS011;2336;47.822;7.564;2023-06-10T15:48:51;4.23;;;4.13;;
4646;SDS011;2336;47.822;7.564;2023-06-10T15:51:18;4.70;;;4.50;;
4646;SDS011;2336;47.822;7.564;2023-06-10T15:53:46;4.67;;;4.33;;
4646;SDS011;2336;47.822;7.564;2023-06-10T15:56:13;4.50;;;4.30;;
4646;SDS011;2336;47.822;7.564;2023-06-10T15:58:40;4.70;;;4.50;;
4646;SDS011;2336;47.822;7.564;2023-06-10T16:01:06;4.50;;;4.40;;
4646;SDS011;2336;47.822;7.564;2023-06-10T16:03:34;4.73;;;4.53;;
4646;SDS011;2336;47.822;7.564;2023-06-10T16:06:01;4.57;;;4.47;;
4646;SDS011;2336;47.822;7.564;2023-06-10T16:08:27;4.40;;;4.30;;
4646;SDS011;2336;47.822;7.564;2023-06-10T16:10:56;5.27;;;4.97;;
4646;SDS011;2336;47.822;7.564;2023-06-10T16:13:22;4.70;;;4.50;;
4646;SDS011;2336;47.822;7.564;2023-06-10T16:15:49;4.87;;;4.57;;
4646;SDS011;2336;47.822;7.564;2023-06-10T16:18:16;4.83;;;4.63;;
4646;SDS011;2336;47.822;7.564;2023-06-10T16:20:42;5.07;;;4.77;;
4646;SDS011;2336;47.822;7.564;2023-06-10T16:23:09;4.50;;;4.30;;
4646;SDS011;2336;47.822;7.564;2023-06-10T16:25:36;4.60;;;4.40;;
4646;SDS011;2336;47.822;7.564;2023-06-10T16:28:04;3.97;;;3.87;;
4646;SDS011;2336;47.822;7.564;2023-06-10T16:30:31;4.47;;;4.27;;
4646;SDS011;2336;47.822;7.564;2023-06-10T16:32:58;4.27;;;4.17;;
4646;SDS011;2336;47.822;7.564;2023-06-10T16:35:25;4.73;;;4.53;;
4646;SDS011;2336;47.822;7.564;2023-06-10T16:37:52;4.33;;;4.10;;
4646;SDS011;2336;47.822;7.564;2023-06-10T16:40:18;4.67;;;4.27;;
4646;SDS011;2336;47.822;7.564;2023-06-10T16:42:45;4.23;;;4.03;;
4646;SDS011;2336;47.822;7.564;2023-06-10T16:45:13;4.63;;;4.40;;
4646;SDS011;2336;47.822;7.564;2023-06-10T16:47:40;4.50;;;4.30;;
4646;SDS011;2336;47.822;7.564;2023-06-10T16:50:07;4.00;;;3.90;;
4646;SDS011;2336;47.822;7.564;2023-06-10T16:52:34;4.50;;;4.30;;
4646;SDS011;2336;47.822;7.564;2023-06-10T16:55:01;4.47;;;4.17;;
4646;SDS011;2336;47.822;7.564;2023-06-10T16:57:28;4.63;;;4.53;;
4646;SDS011;2336;47.822;7.564;2023-06-10T16:59:55;5.63;;;5.10;;
4646;SDS011;2336;47.822;7.564;2023-06-10T17:02:23;5.10;;;4.80;;
4646;SDS011;2336;47.822;7.564;2023-06-10T17:04:51;4.43;;;4.20;;
4646;SDS011;2336;47.822;7.564;2023-06-10T17:07:18;4.00;;;3.80;;
4646;SDS011;2336;47.822;7.564;2023-06-10T17:09:45;5.60;;;5.10;;
4646;SDS011;2336;47.822;7.564;2023-06-10T17:12:12;4.90;;;4.70;;
4646;SDS011;2336;47.822;7.564;2023-06-10T17:14:38;5.00;;;4.70;;
4646;SDS011;2336;47.822;7.564;2023-06-10T17:17:05;4.47;;;4.27;;
4646;SDS011;2336;47.822;7.564;2023-06-10T17:19:33;4.90;;;4.60;;
4646;SDS011;2336;47.822;7.564;2023-06-10T17:22:00;4.10;;;3.90;;
4646;SDS011;2336;47.822;7.564;2023-06-10T17:24:27;3.80;;;3.70;;
4646;SDS011;2336;47.822;7.564;2023-06-10T17:26:53;4.07;;;3.97;;
4646;SDS011;2336;47.822;7.564;2023-06-10T17:29:20;4.40;;;4.20;;
4646;SDS011;2336;47.822;7.564;2023-06-10T17:31:47;4.43;;;4.33;;
4646;SDS011;2336;47.822;7.564;2023-06-10T17:34:13;4.63;;;4.43;;
4646;SDS011;2336;47.822;7.564;2023-06-10T17:36:41;5.10;;;4.73;;
4646;SDS011;2336;47.822;7.564;2023-06-10T17:39:08;4.40;;;4.20;;
4646;SDS011;2336;47.822;7.564;2023-06-10T17:41:37;4.80;;;4.60;;
4646;SDS011;2336;47.822;7.564;2023-06-10T17:44:03;5.20;;;4.90;;
4646;SDS011;2336;47.822;7.564;2023-06-10T17:46:30;4.63;;;4.53;;
4646;SDS011;2336;47.822;7.564;2023-06-10T17:48:57;4.97;;;4.77;;
4646;SDS011;2336;47.822;7.564;2023-06-10T17:51:24;5.07;;;4.87;;
4646;SDS011;2336;47.822;7.564;2023-06-10T17:53:52;5.10;;;4.90;;
4646;SDS011;2336;47.822;7.564;2023-06-10T17:56:18;5.20;;;5.00;;
4646;SDS011;2336;47.822;7.564;2023-06-10T17:58:45;4.90;;;4.70;;
4646;SDS011;2336;47.822;7.564;2023-06-10T18:01:12;5.10;;;4.70;;
4646;SDS011;2336;47.822;7.564;2023-06-10T18:03:39;4.50;;;4.40;;
4646;SDS011;2336;47.822;7.564;2023-06-10T18:06:05;4.53;;;4.37;;
4646;SDS011;2336;47.822;7.564;2023-06-10T18:08:32;4.50;;;4.30;;
4646;SDS011;2336;47.822;7.564;2023-06-10T18:11:01;4.77;;;4.57;;
4646;SDS011;2336;47.822;7.564;2023-06-10T18:13:28;4.93;;;4.73;;
4646;SDS011;2336;47.822;7.564;2023-06-10T18:15:55;4.40;;;4.20;;
4646;SDS011;2336;47.822;7.564;2023-06-10T18:18:21;5.27;;;4.87;;
4646;SDS011;2336;47.822;7.564;2023-06-10T18:20:48;5.10;;;4.73;;
4646;SDS011;2336;47.822;7.564;2023-06-10T18:23:15;4.70;;;4.50;;
4646;SDS011;2336;47.822;7.564;2023-06-10T18:25:42;5.20;;;4.90;;
4646;SDS011;2336;47.822;7.564;2023-06-10T18:28:10;4.73;;;4.53;;
4646;SDS011;2336;47.822;7.564;2023-06-10T18:30:37;5.70;;;5.33;;
4646;SDS011;2336;47.822;7.564;2023-06-10T18:33:04;4.63;;;4.43;;
4646;SDS011;2336;47.822;7.564;2023-06-10T18:35:30;5.80;;;5.47;;
4646;SDS011;2336;47.822;7.564;2023-06-10T18:37:57;5.50;;;4.97;;
4646;SDS011;2336;47.822;7.564;2023-06-10T18:40:24;4.83;;;4.63;;
4646;SDS011;2336;47.822;7.564;2023-06-10T18:42:50;5.43;;;5.17;;
4646;SDS011;2336;47.822;7.564;2023-06-10T18:45:18;5.37;;;4.93;;
4646;SDS011;2336;47.822;7.564;2023-06-10T18:47:45;4.70;;;4.50;;
4646;SDS011;2336;47.822;7.564;2023-06-10T18:50:12;4.90;;;4.70;;
4646;SDS011;2336;47.822;7.564;2023-06-10T18:52:39;5.00;;;4.80;;
4646;SDS011;2336;47.822;7.564;2023-06-10T18:55:06;5.53;;;5.23;;
4646;SDS011;2336;47.822;7.564;2023-06-10T18:57:33;5.00;;;4.80;;
4646;SDS011;2336;47.822;7.564;2023-06-10T19:00:00;4.47;;;4.27;;
4646;SDS011;2336;47.822;7.564;2023-06-10T19:02:28;5.20;;;4.90;;
4646;SDS011;2336;47.822;7.564;2023-06-10T19:04:55;5.00;;;4.70;;
4646;SDS011;2336;47.822;7.564;2023-06-10T19:07:22;5.23;;;5.03;;
4646;SDS011;2336;47.822;7.564;2023-06-10T19:09:49;4.70;;;4.50;;
4646;SDS011;2336;47.822;7.564;2023-06-10T19:12:15;5.20;;;4.90;;